Svanen — LKXK — position and weather

sailwx.info

Track history (hours):
 
Tides and Currents Weather Stations Pressure Air Temp Water Temp Dewpoint Dewpoint Depression Visibility Wind Speed Wind Dir Waves Ship Positions

Svanen (Norway)

Ship's website: http://www.svanen.no/english/english.php1

Last reported at 2020-Aug-07 06:28 UTC. Time now 2020-Aug-07 09:02 UTC.
Position N 59°26' E 010°29'.

Length 27 m; draft 2.8 m.

Type: Sailing vessel. MMSI: 259173000.

Date/timePositionNaut miles runAvg speedWind from/ knotsBaromVisibWave heightAir tempDewpointWater temp
2020-Aug-07 06:28N 59°26' E 010°29'0 0.0
2020-Aug-07 04:58N 59°26' E 010°29'0 0.0
2020-Aug-07 04:29N 59°26' E 010°29'0 0.0
2020-Aug-07 03:58N 59°26' E 010°29'0 0.0
2020-Aug-07 03:28N 59°26' E 010°29'0 0.0
2020-Aug-07 00:59N 59°26' E 010°29'0 0.0
2020-Aug-06 23:28N 59°26' E 010°29'0 0.0
2020-Aug-06 21:28N 59°26' E 010°29'0 0.0
2020-Aug-06 19:59N 59°26' E 010°29'0 0.0
2020-Aug-06 15:58N 59°26' E 010°29'9 3.8
2020-Aug-06 13:30N 59°17' E 010°35'24 3.1
2020-Aug-06 05:48N 58°60' E 010°02'0 0.0
2020-Aug-06 05:30N 58°60' E 010°02'0 0.0
2020-Aug-06 04:27N 58°60' E 010°02'0 0.0
2020-Aug-06 03:56N 58°60' E 010°02'0 0.0
2020-Aug-06 01:59N 58°60' E 010°02'0 0.0
2020-Aug-06 01:29N 58°60' E 010°02'0 0.0
2020-Aug-05 22:27N 58°60' E 010°02'0 0.0
2020-Aug-05 20:00N 58°60' E 010°02'0 0.0
2020-Aug-05 19:26N 58°60' E 010°02'0 0.0
2020-Aug-05 17:29N 58°60' E 010°02'0 0.0
2020-Aug-05 13:59N 58°60' E 010°02'0 0.0
2020-Aug-05 12:57N 58°60' E 010°02'0 0.0
2020-Aug-05 12:30N 58°60' E 010°02'0 0.0
2020-Aug-05 09:29N 58°60' E 010°02'0 0.0
2020-Aug-05 06:29N 58°60' E 010°02'0 0.0
2020-Aug-05 04:30N 58°60' E 010°02'0 0.0
2020-Aug-05 00:30N 58°60' E 010°02'0 0.0
2020-Aug-04 22:27N 58°60' E 010°02'0 0.0
2020-Aug-04 21:00N 58°60' E 010°02'0 0.0
2020-Aug-04 19:56N 58°60' E 010°02'0 0.0
2020-Aug-04 17:00N 58°60' E 010°02'0 0.0
2020-Aug-04 10:59N 58°60' E 010°02'3 1.9
2020-Aug-04 09:30N 58°59' E 010°08'3 5.6
2020-Aug-04 09:00N 59°00' E 010°13'3 5.4
2020-Aug-04 08:30N 59°01' E 010°17'9 2.6
2020-Aug-04 04:59N 59°10' E 010°23'0 0.0
2020-Aug-04 03:59N 59°10' E 010°23'0 0.0
2020-Aug-04 03:00N 59°10' E 010°23'0 0.0
2020-Aug-03 22:29N 59°10' E 010°23'0 0.0
2020-Aug-03 17:30N 59°10' E 010°23'4 3.9
2020-Aug-03 16:30N 59°13' E 010°29'6 6.3
2020-Aug-03 15:30N 59°19' E 010°32'15 6.2
2020-Aug-03 13:00N 59°34' E 010°37'13 6.5
2020-Aug-03 11:00N 59°47' E 010°33'7 6.7
2020-Aug-03 10:00N 59°53' E 010°39'2 4.2
2020-Aug-03 09:30N 59°54' E 010°42'  
Track history (hours):
 
Tides and Currents Weather Stations Pressure Air Temp Water Temp Dewpoint Dewpoint Depression Visibility Wind Speed Wind Dir Waves Ship Positions

Svanen (Norway)

Ship's website: http://www.svanen.no/english/english.php1

Last reported at 2020-Aug-07 06:28 UTC. Time now 2020-Aug-07 09:02 UTC.
Position N 59°26' E 010°29'.

Length 27 m; draft 2.8 m.

Type: Sailing vessel. MMSI: 259173000.

Date/timePositionNaut miles runAvg speedWind from/ knotsBaromVisibWave heightAir tempDewpointWater temp
2020-Aug-07 06:28N 59°26' E 010°29'0 0.0
2020-Aug-07 04:58N 59°26' E 010°29'0 0.0
2020-Aug-07 04:29N 59°26' E 010°29'0 0.0
2020-Aug-07 03:58N 59°26' E 010°29'0 0.0
2020-Aug-07 03:28N 59°26' E 010°29'0 0.0
2020-Aug-07 00:59N 59°26' E 010°29'0 0.0
2020-Aug-06 23:28N 59°26' E 010°29'0 0.0
2020-Aug-06 21:28N 59°26' E 010°29'0 0.0
2020-Aug-06 19:59N 59°26' E 010°29'0 0.0
2020-Aug-06 15:58N 59°26' E 010°29'9 3.8
2020-Aug-06 13:30N 59°17' E 010°35'24 3.1
2020-Aug-06 05:48N 58°60' E 010°02'0 0.0
2020-Aug-06 05:30N 58°60' E 010°02'0 0.0
2020-Aug-06 04:27N 58°60' E 010°02'0 0.0
2020-Aug-06 03:56N 58°60' E 010°02'0 0.0
2020-Aug-06 01:59N 58°60' E 010°02'0 0.0
2020-Aug-06 01:29N 58°60' E 010°02'0 0.0
2020-Aug-05 22:27N 58°60' E 010°02'0 0.0
2020-Aug-05 20:00N 58°60' E 010°02'0 0.0
2020-Aug-05 19:26N 58°60' E 010°02'0 0.0
2020-Aug-05 17:29N 58°60' E 010°02'0 0.0
2020-Aug-05 13:59N 58°60' E 010°02'0 0.0
2020-Aug-05 12:57N 58°60' E 010°02'0 0.0
2020-Aug-05 12:30N 58°60' E 010°02'0 0.0
2020-Aug-05 09:29N 58°60' E 010°02'0 0.0
2020-Aug-05 06:29N 58°60' E 010°02'0 0.0
2020-Aug-05 04:30N 58°60' E 010°02'0 0.0
2020-Aug-05 00:30N 58°60' E 010°02'0 0.0
2020-Aug-04 22:27N 58°60' E 010°02'0 0.0
2020-Aug-04 21:00N 58°60' E 010°02'0 0.0
2020-Aug-04 19:56N 58°60' E 010°02'0 0.0
2020-Aug-04 17:00N 58°60' E 010°02'0 0.0
2020-Aug-04 10:59N 58°60' E 010°02'3 1.9
2020-Aug-04 09:30N 58°59' E 010°08'3 5.6
2020-Aug-04 09:00N 59°00' E 010°13'3 5.4
2020-Aug-04 08:30N 59°01' E 010°17'9 2.6
2020-Aug-04 04:59N 59°10' E 010°23'0 0.0
2020-Aug-04 03:59N 59°10' E 010°23'0 0.0
2020-Aug-04 03:00N 59°10' E 010°23'0 0.0
2020-Aug-03 22:29N 59°10' E 010°23'0 0.0
2020-Aug-03 17:30N 59°10' E 010°23'4 3.9
2020-Aug-03 16:30N 59°13' E 010°29'6 6.3
2020-Aug-03 15:30N 59°19' E 010°32'15 6.2
2020-Aug-03 13:00N 59°34' E 010°37'13 6.5
2020-Aug-03 11:00N 59°47' E 010°33'7 6.7
2020-Aug-03 10:00N 59°53' E 010°39'2 4.2
2020-Aug-03 09:30N 59°54' E 010°42'  

Dump ship's entire track history